Terminal Aerodrome Forecast
Issued by NWS

Home | Current Version | Previous Version | Text Only | Print | Product List | Glossary On
Versions: 1 2 3 4 5 6 7 8 9 10 11 12 13 14 15 16 17 18 19 20 21 22 23 24 25 26 27 28 29 30
389
FTUS43 KDLH 232339
TAFHYR
TAF
KHYR 232339Z 2400/2424 36003KT P6SM BKN100
     FM240300 00000KT P6SM VCSH SCT050 BKN080
     FM240800 00000KT P6SM BKN050
     FM240900 00000KT 4SM BR SCT050
     FM241300 VRB03KT P6SM SCT250=

USA.gov is the U.S. government's official web portal to all federal, state and local government web resources and services.